Sleetmute Airport

About
Name: Sleetmute Airport
Identifier:  SLQ/PASL
Serves:  Sleetmute, Alaska
Owner:  Alaska DOT&PF - Central Region
Public/Private:  Public
Local Time:  20. Aug 06:29 AKDT
Description: Sleetmute Airport is a state-owned public-use airport serving Sleetmute, in the Bethel Census Area of the U.S. state of Alaska.
Source: Wikipedia
Location
Runways
Identifier Length (m/ft) Surface
14/32 3,100/3,100 Gravel
Flights per Day
0 flights
Current Weather
 4 C (Humidity: 93%)
  3kt (5km/h / 3mph) from 350°
  Few clouds at 9,500 feet (2,895 meter)
  Scattered clouds at 11,000 feet (3,352 meter)
  16km (10 mi.)
 METAR PASL 201356Z AUTO 35003KT 10SM FEW095 SCT110 04/03 A2986 RMK AO2 SLP111 T00390033

Current Flights

Departures
Number Departure To Airline
Arrivals
Number Arrival From Airline

Current Delays

Departures
N/A
Arrivals
N/A

Destinations

Top Destinations
Airport Flights
per week
Seats
per week
  Anchorage (ANC) 0 - 0 0

Airlines & Planes

Top Airlines
Airline Flights
per Day
Seats
per Day
SkyBus International Airlines 0 -
Top Plane Types
Model Flights Seats
Pilatus PC-12 0.0/day - 0